X  Close Metar Aviation Weather Data     KDZJ Blairsville Airport
Temperature
52°F Temperature
50°F Dewpoint
94% Humidity



Wind
0 MPH
0 KM/H
0 M/S
0 KTS



Calm
N
Current Conditions

Mostly Scattered Clouds Mostly Scattered Clouds
Pressure 1016.22 (hPa) - 30.01 (inHg)
Visibility 10 (mile) - 16.1 (km)
Airport
Airport-code KDZJ

Location: Blairsville Airport
Distance: 18 (mi)

Metar:
KDZJ 020215Z AUTO 00000KT 10SM SCT049 11/10 A3001 RMK AO2 T01130101

Time: 10-01-2022 22:15 EDT